Time;durP1;ratioP1;P1;durP2;ratioP2;P2;SDS_P1;SDS_P2;PMS_P1;PMS_P2;Temp;Humidity;BMP_temperature;BMP_pressure;BME280_temperature;BME280_humidity;BME280_pressure;Samples;Min_cycle;Max_cycle;Signal;HPM_P1;HPM_P2
2021/01/07 00:00:13;;;;;;;17.35;9.55;;;0.90;99.90;;;;;;5034732;28;20057;-74
2021/01/07 00:02:39;;;;;;;10.18;7.72;;;0.90;99.90;;;;;;5034575;28;20426;-74
2021/01/07 00:05:06;;;;;;;13.75;8.00;;;0.90;99.90;;;;;;5033058;28;20047;-74
2021/01/07 00:07:33;;;;;;;17.40;9.10;;;0.90;99.90;;;;;;5034486;28;20065;-74
2021/01/07 00:09:59;;;;;;;11.98;8.27;;;0.90;99.90;;;;;;5034644;28;20029;-74
2021/01/07 00:12:25;;;;;;;12.25;8.30;;;0.90;99.90;;;;;;5034388;28;20393;-74
2021/01/07 00:14:51;;;;;;;13.13;8.93;;;0.90;99.90;;;;;;5034263;28;20036;-74
2021/01/07 00:17:16;;;;;;;13.13;8.73;;;0.80;99.90;;;;;;5034319;28;20029;-74
2021/01/07 00:19:42;;;;;;;12.55;8.45;;;0.80;99.90;;;;;;5034379;28;20029;-74
2021/01/07 00:22:07;;;;;;;14.05;8.82;;;0.80;99.90;;;;;;5034189;28;20068;-74
2021/01/07 00:24:33;;;;;;;14.00;9.30;;;0.80;99.90;;;;;;5034307;28;20033;-74
2021/01/07 00:26:58;;;;;;;13.43;8.05;;;0.80;99.90;;;;;;5034190;28;20034;-74
2021/01/07 00:29:24;;;;;;;14.38;8.35;;;0.70;99.90;;;;;;5032933;28;20072;-74
2021/01/07 00:31:50;;;;;;;12.73;8.30;;;0.70;99.90;;;;;;5034119;28;20044;-74
2021/01/07 00:34:15;;;;;;;12.32;8.23;;;0.70;99.90;;;;;;5033897;28;20048;-74
2021/01/07 00:36:41;;;;;;;12.90;8.40;;;0.80;99.90;;;;;;5033878;28;20033;-74
2021/01/07 00:39:06;;;;;;;9.73;7.28;;;0.80;99.90;;;;;;5034047;28;20061;-74
2021/01/07 00:41:32;;;;;;;10.23;6.95;;;0.70;99.90;;;;;;5033780;28;20067;-74
2021/01/07 00:43:58;;;;;;;11.05;8.00;;;0.70;99.90;;;;;;5033793;28;20029;-74
2021/01/07 00:46:23;;;;;;;10.35;7.38;;;0.70;99.90;;;;;;5033806;28;20099;-74
2021/01/07 00:48:49;;;;;;;13.38;8.35;;;0.70;99.90;;;;;;5033805;28;20029;-74
2021/01/07 00:51:15;;;;;;;11.60;7.80;;;0.70;99.90;;;;;;5032428;28;20099;-74
2021/01/07 00:53:41;;;;;;;12.10;8.23;;;0.60;99.90;;;;;;5033666;28;20025;-74
2021/01/07 00:56:06;;;;;;;15.57;8.02;;;0.70;99.90;;;;;;5033393;28;20025;-74
2021/01/07 00:58:32;;;;;;;14.57;8.35;;;0.70;99.90;;;;;;5033671;28;20477;-74
2021/01/07 01:00:57;;;;;;;14.52;8.82;;;0.60;99.90;;;;;;5033573;28;20033;-74
2021/01/07 01:03:23;;;;;;;12.57;7.93;;;0.60;99.90;;;;;;5033473;28;20029;-74
2021/01/07 01:05:49;;;;;;;13.68;8.35;;;0.70;99.90;;;;;;5031044;28;20021;-74
2021/01/07 01:08:16;;;;;;;12.43;8.60;;;0.60;99.90;;;;;;5033529;28;20131;-74
2021/01/07 01:10:43;;;;;;;12.75;8.52;;;0.60;99.90;;;;;;5033386;28;20021;-74
2021/01/07 01:13:09;;;;;;;14.68;8.88;;;0.60;99.90;;;;;;5033347;28;20030;-74
2021/01/07 01:15:34;;;;;;;11.50;8.80;;;0.60;99.90;;;;;;5032966;28;20515;-74
2021/01/07 01:18:00;;;;;;;12.95;7.43;;;0.60;99.90;;;;;;5032031;28;20061;-74
2021/01/07 01:20:25;;;;;;;12.52;8.35;;;0.70;99.90;;;;;;5033687;28;20025;-74
2021/01/07 01:22:51;;;;;;;10.80;7.82;;;0.70;99.90;;;;;;5033126;28;20374;-74
2021/01/07 01:25:17;;;;;;;11.45;7.90;;;0.70;99.90;;;;;;5032799;28;20028;-74
2021/01/07 01:27:44;;;;;;;12.25;8.15;;;0.70;99.90;;;;;;5032948;28;20026;-74
2021/01/07 01:30:12;;;;;;;11.27;7.60;;;0.60;99.90;;;;;;5031784;28;20064;-73
2021/01/07 01:32:39;;;;;;;13.88;8.68;;;0.60;99.90;;;;;;5032947;28;20037;-74
2021/01/07 01:35:06;;;;;;;13.32;8.20;;;0.70;99.90;;;;;;5031332;28;20025;-74
2021/01/07 01:37:33;;;;;;;14.48;9.45;;;0.70;99.90;;;;;;5032901;28;20492;-74
2021/01/07 01:39:58;;;;;;;13.30;8.63;;;0.70;99.90;;;;;;5031646;28;20048;-74
2021/01/07 01:42:25;;;;;;;13.65;8.73;;;0.70;99.90;;;;;;5032618;28;20106;-74
2021/01/07 01:44:51;;;;;;;14.82;8.85;;;0.70;99.90;;;;;;5032526;28;20034;-74
2021/01/07 01:47:17;;;;;;;15.27;8.27;;;0.70;99.90;;;;;;5032792;28;20025;-74
2021/01/07 01:49:43;;;;;;;13.10;8.27;;;0.70;99.90;;;;;;5032478;28;20025;-74
2021/01/07 01:52:09;;;;;;;13.73;8.85;;;0.70;99.90;;;;;;5032692;28;20037;-74
2021/01/07 01:54:36;;;;;;;10.02;7.32;;;0.70;99.90;;;;;;5032225;28;20092;-74
2021/01/07 01:57:02;;;;;;;11.57;7.57;;;0.70;99.90;;;;;;5032485;28;20029;-74
2021/01/07 01:59:30;;;;;;;12.32;8.48;;;0.70;99.90;;;;;;5032351;28;20022;-74
2021/01/07 02:02:04;;;;;;;11.95;7.75;;;0.70;99.90;;;;;;5032322;28;20022;-74
2021/01/07 02:04:30;;;;;;;11.70;8.15;;;0.80;99.90;;;;;;5032335;28;20029;-74
2021/01/07 02:06:58;;;;;;;12.57;9.13;;;0.80;99.90;;;;;;5032401;28;20025;-74
2021/01/07 02:09:23;;;;;;;10.98;8.05;;;0.70;99.90;;;;;;5032381;28;20540;-74
2021/01/07 02:11:58;;;;;;;11.82;7.97;;;0.70;99.90;;;;;;5032280;28;20060;-74
2021/01/07 02:14:25;;;;;;;12.02;8.07;;;0.70;99.90;;;;;;5030732;28;20508;-74
2021/01/07 02:16:50;;;;;;;13.23;8.15;;;0.70;99.90;;;;;;5032150;28;20037;-74
2021/01/07 02:19:16;;;;;;;12.23;8.25;;;0.80;99.90;;;;;;5032157;28;20371;-74
2021/01/07 02:21:41;;;;;;;12.68;8.70;;;0.70;99.90;;;;;;5032077;28;20367;-74
2021/01/07 02:24:09;;;;;;;15.93;9.55;;;0.70;99.90;;;;;;5031876;28;20036;-74
2021/01/07 02:26:34;;;;;;;13.43;9.52;;;0.70;99.90;;;;;;5030874;28;20457;-74
2021/01/07 02:29:00;;;;;;;11.07;8.15;;;0.70;99.90;;;;;;5031960;28;20056;-74
2021/01/07 02:31:26;;;;;;;12.07;8.52;;;0.70;99.90;;;;;;5031918;28;20032;-74
2021/01/07 02:33:51;;;;;;;12.95;7.72;;;0.70;99.90;;;;;;5030518;28;20401;-74
2021/01/07 02:36:17;;;;;;;14.60;8.73;;;0.70;99.90;;;;;;5031902;28;20036;-74
2021/01/07 02:38:42;;;;;;;12.68;9.15;;;0.70;99.90;;;;;;5031945;28;20018;-74
2021/01/07 02:41:08;;;;;;;12.43;8.77;;;0.70;99.90;;;;;;5030657;28;20398;-74
2021/01/07 02:43:37;;;;;;;12.75;8.30;;;0.70;99.90;;;;;;5030414;28;20486;-74
2021/01/07 02:46:02;;;;;;;11.70;7.97;;;0.70;99.90;;;;;;5031487;28;20053;-74
2021/01/07 02:48:28;;;;;;;12.43;9.05;;;0.70;99.90;;;;;;5031795;28;20064;-74
2021/01/07 02:50:53;;;;;;;11.90;8.45;;;0.70;99.90;;;;;;5030489;28;20032;-74
2021/01/07 02:53:19;;;;;;;14.48;9.43;;;0.70;99.90;;;;;;5031904;28;20037;-74
2021/01/07 02:55:45;;;;;;;13.13;8.82;;;0.70;99.90;;;;;;5031421;28;20033;-74
2021/01/07 02:58:10;;;;;;;13.93;8.40;;;0.70;99.90;;;;;;5031667;28;20042;-74
2021/01/07 03:00:36;;;;;;;12.55;8.27;;;0.70;99.90;;;;;;5031663;28;20672;-74
2021/01/07 03:03:01;;;;;;;13.50;8.90;;;0.70;99.90;;;;;;5031667;28;20032;-74
2021/01/07 03:05:27;;;;;;;13.68;9.20;;;0.70;99.90;;;;;;5031546;28;20484;-74
2021/01/07 03:07:53;;;;;;;13.73;9.10;;;0.70;99.90;;;;;;5031609;28;20077;-74
2021/01/07 03:10:18;;;;;;;13.77;8.63;;;0.70;99.90;;;;;;5031584;28;20101;-74
2021/01/07 03:12:44;;;;;;;13.02;7.95;;;0.70;99.90;;;;;;5030269;28;20030;-74
2021/01/07 03:15:09;;;;;;;11.27;8.23;;;0.80;99.90;;;;;;5030003;28;20025;-74
2021/01/07 03:17:35;;;;;;;14.05;8.73;;;0.80;99.90;;;;;;5031434;28;20489;-74
2021/01/07 03:20:01;;;;;;;13.95;8.35;;;0.70;99.90;;;;;;5030250;28;20030;-74
2021/01/07 03:22:27;;;;;;;14.40;8.77;;;0.70;99.90;;;;;;5031334;28;20033;-75
2021/01/07 03:24:52;;;;;;;10.98;8.05;;;0.70;99.90;;;;;;5029897;28;20032;-74
2021/01/07 03:27:18;;;;;;;13.48;8.30;;;0.70;99.90;;;;;;5031464;28;20022;-74
2021/01/07 03:29:44;;;;;;;11.70;8.23;;;0.60;99.90;;;;;;5032126;28;20034;-74
2021/01/07 03:32:09;;;;;;;13.15;8.45;;;0.70;99.90;;;;;;5035294;28;20033;-75
2021/01/07 03:34:35;;;;;;;13.38;8.20;;;0.70;99.90;;;;;;5035263;28;20782;-74
2021/01/07 03:37:00;;;;;;;16.75;8.30;;;0.70;99.90;;;;;;5033921;28;20034;-74
2021/01/07 03:39:26;;;;;;;12.50;7.95;;;0.70;99.90;;;;;;5035162;28;20440;-75
2021/01/07 03:41:52;;;;;;;13.25;8.35;;;0.70;99.90;;;;;;5034971;28;20029;-75
2021/01/07 03:44:17;;;;;;;14.00;8.15;;;0.70;99.90;;;;;;5033385;28;20025;-75
2021/01/07 03:46:43;;;;;;;12.60;7.55;;;0.70;99.90;;;;;;5035086;28;20025;-75
2021/01/07 03:49:09;;;;;;;10.35;7.25;;;0.80;99.90;;;;;;5035135;28;20385;-75
2021/01/07 03:51:34;;;;;;;12.07;7.80;;;0.70;99.90;;;;;;5034932;28;20477;-75
2021/01/07 03:54:00;;;;;;;12.68;7.97;;;0.70;99.90;;;;;;5034605;28;20022;-75
2021/01/07 03:56:26;;;;;;;13.35;8.23;;;0.70;99.90;;;;;;5034801;28;20104;-75
2021/01/07 03:58:51;;;;;;;11.50;7.72;;;0.70;99.90;;;;;;5033930;28;20108;-75
2021/01/07 04:01:17;;;;;;;12.93;7.78;;;0.80;99.90;;;;;;5033645;28;20075;-75
2021/01/07 04:03:43;;;;;;;12.18;7.85;;;0.80;99.90;;;;;;5034474;28;20033;-75
2021/01/07 04:06:08;;;;;;;10.55;7.15;;;0.80;99.90;;;;;;5034639;28;20025;-74
2021/01/07 04:08:34;;;;;;;10.10;6.57;;;0.80;99.90;;;;;;5034708;28;20104;-75
2021/01/07 04:10:59;;;;;;;10.13;6.35;;;0.80;99.90;;;;;;5034618;28;20371;-75
2021/01/07 04:13:25;;;;;;;12.13;7.70;;;0.70;99.90;;;;;;5034527;28;20112;-74
2021/01/07 04:15:51;;;;;;;12.00;7.47;;;0.70;99.90;;;;;;5034325;28;20036;-74
2021/01/07 04:18:16;;;;;;;10.18;7.40;;;0.70;99.90;;;;;;5034446;28;20025;-74
2021/01/07 04:20:42;;;;;;;13.10;7.43;;;0.70;99.90;;;;;;5034421;28;20033;-74
2021/01/07 04:23:07;;;;;;;11.98;7.40;;;0.70;99.90;;;;;;5034312;28;20029;-74
2021/01/07 04:25:33;;;;;;;11.02;6.25;;;0.70;99.90;;;;;;5034039;28;20025;-74
2021/01/07 04:27:58;;;;;;;12.05;6.88;;;0.70;99.90;;;;;;5034222;28;20025;-74
2021/01/07 04:30:24;;;;;;;10.65;6.72;;;0.70;99.90;;;;;;5032949;28;20017;-75
2021/01/07 04:32:49;;;;;;;11.85;6.82;;;0.80;99.90;;;;;;5034156;28;20087;-74
2021/01/07 04:35:15;;;;;;;13.40;7.57;;;0.80;99.90;;;;;;5033875;28;20036;-75
2021/01/07 04:37:41;;;;;;;11.63;7.57;;;0.80;99.90;;;;;;5034047;28;20040;-75
2021/01/07 04:40:07;;;;;;;10.15;6.55;;;0.80;99.90;;;;;;5033289;28;20030;-74
2021/01/07 04:42:33;;;;;;;9.65;6.25;;;0.70;99.90;;;;;;5033460;28;20441;-74
2021/01/07 04:44:59;;;;;;;10.20;7.45;;;0.70;99.90;;;;;;5032523;28;20022;-74
2021/01/07 04:47:25;;;;;;;10.65;6.90;;;0.80;99.90;;;;;;5033980;28;20018;-74
2021/01/07 04:49:52;;;;;;;10.50;6.63;;;0.80;99.90;;;;;;5033899;28;20029;-74
2021/01/07 04:52:17;;;;;;;10.60;7.38;;;0.80;99.90;;;;;;5033910;28;20049;-75
2021/01/07 04:54:43;;;;;;;12.63;7.85;;;0.80;99.90;;;;;;5032106;28;20076;-75
2021/01/07 04:57:09;;;;;;;13.50;7.97;;;0.70;99.90;;;;;;5033668;28;20029;-75
2021/01/07 04:59:34;;;;;;;10.48;7.05;;;0.70;99.90;;;;;;5033748;28;20123;-74
2021/01/07 05:02:02;;;;;;;10.93;7.10;;;0.70;99.90;;;;;;5033585;28;20033;-74
2021/01/07 05:04:27;;;;;;;11.90;7.25;;;0.70;99.90;;;;;;5033390;28;20026;-74
2021/01/07 05:06:53;;;;;;;9.40;6.63;;;0.70;99.90;;;;;;5033480;28;20115;-74
2021/01/07 05:09:19;;;;;;;12.60;8.05;;;0.70;99.90;;;;;;5032209;28;20032;-74
2021/01/07 05:11:44;;;;;;;11.52;7.20;;;0.70;99.90;;;;;;5033403;28;20022;-74
2021/01/07 05:14:10;;;;;;;12.15;7.45;;;0.70;99.90;;;;;;5033209;28;20022;-74
2021/01/07 05:16:36;;;;;;;9.95;6.32;;;0.70;99.90;;;;;;5032091;28;20055;-74
2021/01/07 05:19:07;;;;;;;12.63;8.02;;;0.70;99.90;;;;;;5033321;28;20060;-74
2021/01/07 05:21:34;;;;;;;9.77;6.72;;;0.70;99.90;;;;;;5032118;28;20029;-74
2021/01/07 05:24:01;;;;;;;10.60;6.97;;;0.70;99.90;;;;;;5033012;28;20033;-75
2021/01/07 05:26:27;;;;;;;9.68;6.63;;;0.70;99.90;;;;;;5033124;28;20592;-74
2021/01/07 05:28:55;;;;;;;12.98;6.93;;;0.70;99.90;;;;;;5033170;28;20104;-74
2021/01/07 05:31:22;;;;;;;10.75;6.68;;;0.70;99.90;;;;;;5033202;28;20252;-74
2021/01/07 05:33:49;;;;;;;11.15;6.60;;;0.70;99.90;;;;;;5032914;28;20026;-75
2021/01/07 05:36:34;;;;;;;10.93;7.28;;;0.70;99.90;;;;;;5032984;28;20076;-74
2021/01/07 05:39:05;;;;;;;15.05;7.10;;;0.80;99.90;;;;;;5031613;28;20539;-74
2021/01/07 05:41:35;;;;;;;10.05;7.10;;;0.70;99.90;;;;;;5032967;28;20037;-75
2021/01/07 05:44:12;;;;;;;10.02;6.60;;;0.80;99.90;;;;;;5031565;28;20034;-74
2021/01/07 05:46:37;;;;;;;11.57;7.28;;;0.80;99.90;;;;;;5032798;28;20025;-74
2021/01/07 05:49:03;;;;;;;15.18;7.57;;;0.70;99.90;;;;;;5032662;28;20035;-74
2021/01/07 05:51:31;;;;;;;10.75;7.15;;;0.80;99.90;;;;;;5032347;28;20022;-74
2021/01/07 05:53:58;;;;;;;9.52;6.53;;;0.70;99.90;;;;;;5032349;28;20116;-74
2021/01/07 05:56:25;;;;;;;11.93;6.68;;;0.70;99.90;;;;;;5031326;28;20037;-74
2021/01/07 05:58:53;;;;;;;12.63;7.03;;;0.70;99.90;;;;;;5032672;28;20124;-74
2021/01/07 06:01:20;;;;;;;13.43;6.70;;;0.70;99.90;;;;;;5031321;28;20481;-74
2021/01/07 06:03:53;;;;;;;12.02;7.15;;;0.70;99.90;;;;;;5032172;28;20032;-74
2021/01/07 06:06:21;;;;;;;11.23;6.93;;;0.70;99.90;;;;;;5032439;28;20470;-74
2021/01/07 06:08:48;;;;;;;12.32;6.28;;;0.70;99.90;;;;;;5032361;28;20034;-74
2021/01/07 06:11:15;;;;;;;13.00;7.28;;;0.70;99.90;;;;;;5032371;28;20021;-74
2021/01/07 06:13:46;;;;;;;13.65;7.85;;;0.70;99.90;;;;;;5032267;28;20429;-74
2021/01/07 06:16:17;;;;;;;14.95;7.40;;;0.70;99.90;;;;;;5030938;28;20036;-74
2021/01/07 06:18:42;;;;;;;12.23;7.90;;;0.70;99.90;;;;;;5031014;28;20079;-74
2021/01/07 06:21:09;;;;;;;12.25;7.45;;;0.70;99.90;;;;;;5030928;28;20528;-74
2021/01/07 06:23:45;;;;;;;12.65;6.57;;;0.70;99.90;;;;;;5032076;28;20029;-74
2021/01/07 06:26:27;;;;;;;13.75;7.32;;;0.80;99.90;;;;;;5032094;28;20025;-74
2021/01/07 06:28:54;;;;;;;11.45;7.40;;;0.70;99.90;;;;;;5031971;28;20025;-74
2021/01/07 06:31:29;;;;;;;13.45;6.95;;;0.70;99.90;;;;;;5032000;28;20028;-74
2021/01/07 06:33:56;;;;;;;14.52;7.18;;;0.70;99.90;;;;;;5031925;28;20025;-75
2021/01/07 06:36:39;;;;;;;15.73;8.02;;;0.70;99.90;;;;;;5030690;28;20027;-74
2021/01/07 06:39:06;;;;;;;11.45;7.28;;;0.70;99.90;;;;;;5032011;28;20500;-74
2021/01/07 06:41:32;;;;;;;13.65;8.48;;;0.80;99.90;;;;;;5031918;28;20501;-74
2021/01/07 06:43:58;;;;;;;12.38;6.85;;;0.80;99.90;;;;;;5030427;28;20390;-74
2021/01/07 06:46:38;;;;;;;43.42;15.20;;;0.80;99.90;;;;;;5031872;28;20111;-74
2021/01/07 06:49:15;;;;;;;17.05;8.02;;;0.70;99.90;;;;;;5031860;28;20024;-74
2021/01/07 06:51:46;;;;;;;13.55;7.55;;;0.70;99.90;;;;;;5030387;28;20032;-74
2021/01/07 06:54:12;;;;;;;12.07;7.47;;;0.70;99.90;;;;;;5031507;28;20049;-74
2021/01/07 06:56:41;;;;;;;18.50;7.22;;;0.70;99.90;;;;;;5031756;28;20117;-74
2021/01/07 06:59:07;;;;;;;12.25;7.93;;;0.80;99.90;;;;;;5031769;28;20105;-74
2021/01/07 07:01:33;;;;;;;13.43;7.43;;;0.80;99.90;;;;;;5031666;28;20021;-74
2021/01/07 07:04:03;;;;;;;16.42;8.75;;;0.70;99.90;;;;;;5032423;28;20032;-74
2021/01/07 07:06:31;;;;;;;11.32;7.35;;;0.70;99.90;;;;;;5034391;28;20478;-74
2021/01/07 07:08:57;;;;;;;11.75;7.40;;;0.60;99.90;;;;;;5034471;28;20083;-74
2021/01/07 07:11:30;;;;;;;14.13;7.82;;;0.70;99.90;;;;;;5035754;28;20478;-74
2021/01/07 07:13:57;;;;;;;;;;;0.70;99.90;;;;;;5034707;28;20108;-74
2021/01/07 07:16:24;;;;;;;9.75;6.35;;;0.70;99.90;;;;;;5035663;28;19912;-74
2021/01/07 07:18:55;;;;;;;10.20;7.18;;;0.70;99.90;;;;;;5035543;28;20395;-73
2021/01/07 07:21:26;;;;;;;12.00;7.13;;;0.70;99.90;;;;;;5035839;28;20072;-74
2021/01/07 07:23:56;;;;;;;12.13;7.70;;;0.70;99.90;;;;;;5035363;28;20025;-74
2021/01/07 07:26:35;;;;;;;17.13;9.63;;;0.70;99.90;;;;;;5035627;28;20036;-74
2021/01/07 07:29:22;;;;;;;13.02;8.90;;;0.70;99.90;;;;;;5034218;28;20493;-74
2021/01/07 07:31:48;;;;;;;40.05;20.17;;;0.80;99.90;;;;;;5034778;28;20030;-74
2021/01/07 07:34:15;;;;;;;75.15;30.73;;;0.80;99.90;;;;;;5035182;28;20021;-74
2021/01/07 07:36:41;;;;;;;21.05;10.55;;;0.80;99.90;;;;;;5035391;28;20470;-74
2021/01/07 07:39:09;;;;;;;63.13;22.70;;;0.80;99.90;;;;;;5035259;28;20030;-74
2021/01/07 07:41:39;;;;;;;127.15;35.92;;;0.70;99.90;;;;;;5035166;28;20105;-74
2021/01/07 07:44:05;;;;;;;61.72;26.65;;;0.80;99.90;;;;;;5034923;28;20021;-74
2021/01/07 07:46:31;;;;;;;60.42;26.58;;;0.80;99.90;;;;;;5033785;28;20112;-74
2021/01/07 07:48:58;;;;;;;40.72;17.80;;;0.90;99.90;;;;;;5035107;28;20516;-74
2021/01/07 07:51:24;;;;;;;52.17;19.90;;;0.90;99.90;;;;;;5033693;28;20056;-73
2021/01/07 07:53:50;;;;;;;29.58;13.00;;;0.80;99.90;;;;;;5034713;28;20064;-74
2021/01/07 07:56:22;;;;;;;15.70;8.50;;;0.80;99.90;;;;;;5035265;28;20030;-74
2021/01/07 07:58:48;;;;;;;9.53;6.40;;;0.80;99.90;;;;;;5035009;28;20544;-74
2021/01/07 08:01:14;;;;;;;27.15;14.25;;;0.80;99.90;;;;;;5032387;28;20041;-74
2021/01/07 08:03:40;;;;;;;118.93;32.25;;;0.90;99.90;;;;;;5034196;28;20036;-73
2021/01/07 08:06:05;;;;;;;52.97;15.48;;;0.90;99.90;;;;;;5034230;28;20112;-74
2021/01/07 08:08:33;;;;;;;43.10;17.42;;;0.90;99.90;;;;;;5034436;28;20110;-74
2021/01/07 08:11:01;;;;;;;57.22;21.48;;;0.80;99.90;;;;;;5034419;28;20448;-74
2021/01/07 08:13:28;;;;;;;98.35;44.35;;;0.90;99.90;;;;;;5034416;28;20041;-73
2021/01/07 08:15:56;;;;;;;22.60;13.52;;;0.90;99.90;;;;;;5033863;28;20036;-73
2021/01/07 08:18:23;;;;;;;31.45;16.70;;;0.90;99.90;;;;;;5034258;28;20511;-74
2021/01/07 08:20:51;;;;;;;13.80;8.35;;;0.90;99.90;;;;;;5033121;28;20030;-74
2021/01/07 08:23:17;;;;;;;13.43;8.30;;;1.00;99.90;;;;;;5034283;28;20433;-74
2021/01/07 08:25:51;;;;;;;16.73;8.95;;;0.90;99.90;;;;;;5032756;28;20343;-74
2021/01/07 08:28:41;;;;;;;20.40;10.20;;;0.90;99.90;;;;;;5034298;28;20362;-74
2021/01/07 08:31:15;;;;;;;12.18;7.78;;;1.00;99.90;;;;;;5034439;28;20109;-74
2021/01/07 08:33:41;;;;;;;15.05;8.88;;;1.00;99.90;;;;;;5032659;28;20025;-74
2021/01/07 08:36:19;;;;;;;13.23;8.23;;;1.00;99.90;;;;;;5033818;28;20033;-74
2021/01/07 08:38:53;;;;;;;17.58;9.95;;;0.90;99.90;;;;;;5027650;28;20029;-74
2021/01/07 08:41:21;;;;;;;14.77;8.68;;;0.90;99.90;;;;;;5033302;28;20026;-73
2021/01/07 08:43:50;;;;;;;22.00;13.30;;;0.90;99.90;;;;;;5033509;28;20417;-73
2021/01/07 08:46:18;;;;;;;26.45;15.80;;;1.00;99.90;;;;;;5033758;28;20048;-73
2021/01/07 08:48:45;;;;;;;13.48;7.82;;;1.00;99.90;;;;;;5033841;28;20056;-73
2021/01/07 08:51:18;;;;;;;16.52;10.35;;;1.00;99.90;;;;;;5033394;28;20080;-73
2021/01/07 08:53:48;;;;;;;16.42;10.45;;;1.00;99.90;;;;;;5032345;28;20021;-74
2021/01/07 08:56:40;;;;;;;13.43;8.73;;;1.00;99.90;;;;;;5033539;28;20580;-73
2021/01/07 08:59:26;;;;;;;18.55;10.52;;;1.00;99.90;;;;;;5033787;28;20030;-73
2021/01/07 09:02:01;;;;;;;17.23;9.15;;;1.10;99.90;;;;;;5032470;28;20462;-73
2021/01/07 09:04:40;;;;;;;10.52;6.88;;;1.10;99.90;;;;;;5032190;28;20112;-73
2021/01/07 09:07:17;;;;;;;12.55;7.70;;;1.00;99.90;;;;;;5033620;28;20014;-73
2021/01/07 09:09:49;;;;;;;29.48;13.43;;;1.00;99.90;;;;;;5032349;28;20025;-73
2021/01/07 09:12:23;;;;;;;18.10;11.15;;;1.10;99.90;;;;;;5033517;28;20456;-73
2021/01/07 09:14:53;;;;;;;;;;;1.10;99.90;;;;;;5032475;28;20041;-73
2021/01/07 09:17:21;;;;;;;23.33;12.10;;;1.10;99.90;;;;;;5034267;28;19915;-73
2021/01/07 09:19:47;;;;;;;22.98;10.18;;;1.10;99.90;;;;;;5033127;28;20034;-73
2021/01/07 09:22:21;;;;;;;28.60;13.43;;;1.10;99.90;;;;;;5033237;28;20426;-73
2021/01/07 09:24:47;;;;;;;27.95;15.45;;;1.10;99.90;;;;;;5025149;28;20022;-72
2021/01/07 09:27:15;;;;;;;18.95;11.15;;;1.10;99.90;;;;;;5013892;28;20039;-73
2021/01/07 09:29:41;;;;;;;20.40;10.57;;;1.20;99.90;;;;;;5032693;28;20071;-73
2021/01/07 09:32:09;;;;;;;31.85;16.30;;;1.20;99.90;;;;;;5027189;28;20058;-73
2021/01/07 09:34:36;;;;;;;26.10;15.40;;;1.20;99.90;;;;;;5026329;28;20084;-72
2021/01/07 09:37:07;;;;;;;70.43;34.78;;;1.20;99.90;;;;;;5014269;28;20079;-73
2021/01/07 09:39:33;;;;;;;66.43;30.35;;;1.20;99.90;;;;;;5022501;28;20025;-72
2021/01/07 09:41:59;;;;;;;23.10;13.05;;;1.20;99.90;;;;;;5032792;28;20366;-72
2021/01/07 09:44:24;;;;;;;54.95;27.08;;;1.20;99.90;;;;;;5031200;28;20095;-72
2021/01/07 09:46:52;;;;;;;94.03;39.20;;;1.30;99.90;;;;;;5032469;28;20031;-72
2021/01/07 09:49:18;;;;;;;147.82;66.65;;;1.30;99.90;;;;;;5032772;28;20080;-72
2021/01/07 09:51:43;;;;;;;40.50;18.85;;;1.30;99.90;;;;;;5032714;28;20473;-72
2021/01/07 09:54:09;;;;;;;70.50;34.55;;;1.30;99.90;;;;;;5032274;28;20048;-72
2021/01/07 09:56:35;;;;;;;152.52;59.05;;;1.30;99.90;;;;;;5032366;28;20041;-73
2021/01/07 09:59:00;;;;;;;18.85;11.30;;;1.40;99.90;;;;;;5032475;28;20034;-73
2021/01/07 10:01:26;;;;;;;45.38;19.55;;;1.40;99.90;;;;;;5032552;28;20401;-73
2021/01/07 10:03:51;;;;;;;14.13;8.98;;;1.40;99.90;;;;;;5032228;28;20037;-73
2021/01/07 10:06:17;;;;;;;28.42;12.27;;;1.40;99.90;;;;;;5032270;28;20028;-74
2021/01/07 10:08:42;;;;;;;28.45;15.27;;;1.40;99.90;;;;;;5031017;28;20029;-74
2021/01/07 10:11:08;;;;;;;24.58;14.38;;;1.50;99.90;;;;;;5032406;28;20021;-73
2021/01/07 10:13:34;;;;;;;17.60;12.18;;;1.50;99.90;;;;;;5032320;28;20573;-73
2021/01/07 10:16:00;;;;;;;14.63;9.20;;;1.50;99.90;;;;;;5031986;28;20028;-74
2021/01/07 10:18:26;;;;;;;40.40;25.35;;;1.50;99.90;;;;;;5032166;28;20381;-73
2021/01/07 10:20:59;;;;;;;59.05;29.67;;;1.50;99.90;;;;;;5032125;28;20029;-73
2021/01/07 10:23:25;;;;;;;23.70;12.30;;;1.60;99.90;;;;;;5032201;28;20025;-73
2021/01/07 10:25:51;;;;;;;86.75;39.53;;;1.60;99.90;;;;;;5030562;28;20402;-73
2021/01/07 10:28:18;;;;;;;36.03;18.92;;;1.60;99.90;;;;;;5030726;28;20029;-73
2021/01/07 10:30:45;;;;;;;57.05;32.10;;;1.50;99.90;;;;;;5031998;28;20024;-74
2021/01/07 10:33:10;;;;;;;114.03;53.05;;;1.60;99.90;;;;;;5030570;28;20025;-74
2021/01/07 10:35:39;;;;;;;82.05;38.28;;;1.50;99.90;;;;;;5031804;28;20025;-74
2021/01/07 10:38:07;;;;;;;43.78;24.15;;;1.60;99.90;;;;;;5030732;28;20155;-73
2021/01/07 10:40:38;;;;;;;64.60;36.42;;;1.60;99.90;;;;;;5030564;28;20478;-73
2021/01/07 10:43:04;;;;;;;21.80;12.55;;;1.60;99.90;;;;;;5031761;28;20033;-73
2021/01/07 10:45:30;;;;;;;59.33;30.52;;;1.70;99.90;;;;;;5031610;28;20032;-74
2021/01/07 10:47:59;;;;;;;25.58;14.82;;;1.70;99.90;;;;;;5031624;28;20022;-73
2021/01/07 10:50:28;;;;;;;23.58;13.90;;;1.70;99.90;;;;;;5031803;28;20029;-73
2021/01/07 10:53:09;;;;;;;17.60;11.43;;;1.70;99.90;;;;;;5031701;28;20030;-74
2021/01/07 10:55:41;;;;;;;12.57;9.43;;;1.70;99.90;;;;;;5031119;28;20704;-73
2021/01/07 10:58:32;;;;;;;14.00;8.90;;;1.70;99.90;;;;;;5030579;28;20048;-73
2021/01/07 11:01:16;;;;;;;11.88;8.65;;;1.70;99.90;;;;;;5025781;28;20038;-73
2021/01/07 11:04:08;;;;;;;13.18;7.47;;;1.80;99.90;;;;;;5031072;28;20116;-73
2021/01/07 11:06:36;;;;;;;13.15;7.97;;;1.70;99.90;;;;;;5031293;28;20032;-73
2021/01/07 11:09:03;;;;;;;18.77;7.47;;;1.80;99.90;;;;;;5031553;28;20029;-73
2021/01/07 11:11:36;;;;;;;11.32;7.45;;;1.70;99.90;;;;;;5031418;28;20021;-74
2021/01/07 11:14:13;;;;;;;14.07;8.05;;;1.70;99.90;;;;;;5031293;28;20044;-73
2021/01/07 11:16:45;;;;;;;9.43;7.15;;;1.70;99.90;;;;;;5031219;28;20038;-74
2021/01/07 11:19:19;;;;;;;9.68;6.68;;;1.70;99.90;;;;;;5031367;28;20030;-74
2021/01/07 11:21:53;;;;;;;11.25;7.40;;;1.80;99.90;;;;;;5031498;28;20029;-74
2021/01/07 11:24:20;;;;;;;12.40;6.70;;;1.70;99.90;;;;;;5029964;28;20397;-73
2021/01/07 11:26:46;;;;;;;11.45;6.45;;;1.70;99.90;;;;;;5029691;28;20025;-73
2021/01/07 11:29:13;;;;;;;12.02;6.88;;;1.70;99.90;;;;;;5031447;28;20025;-73
2021/01/07 11:31:40;;;;;;;9.65;7.13;;;1.70;99.90;;;;;;5030016;28;20600;-72
2021/01/07 11:34:06;;;;;;;9.65;5.88;;;1.70;99.90;;;;;;5031256;28;20036;-73
2021/01/07 11:36:41;;;;;;;10.57;6.75;;;1.70;99.90;;;;;;5031327;28;20025;-73
2021/01/07 11:39:06;;;;;;;8.98;6.47;;;1.70;99.90;;;;;;5024982;28;20033;-73
2021/01/07 11:41:41;;;;;;;13.00;6.68;;;1.70;99.90;;;;;;5029900;28;20025;-73
2021/01/07 11:44:45;;;;;;;9.48;6.60;;;1.70;99.90;;;;;;5030831;28;20028;-73
2021/01/07 11:47:11;;;;;;;;;;;1.80;99.90;;;;;;5031481;28;20405;-73
2021/01/07 11:49:39;;;;;;;11.70;6.53;;;1.80;99.90;;;;;;5031384;28;19909;-73
2021/01/07 11:52:08;;;;;;;12.93;6.93;;;1.80;99.90;;;;;;5034895;28;20071;-74
2021/01/07 11:54:38;;;;;;;12.73;7.90;;;1.80;99.90;;;;;;5034507;28;20088;-73
2021/01/07 11:57:07;;;;;;;12.00;6.35;;;1.80;99.90;;;;;;5033381;28;20481;-73
2021/01/07 11:59:38;;;;;;;9.48;6.00;;;1.80;99.90;;;;;;5033528;28;20025;-74
2021/01/07 12:02:08;;;;;;;9.45;6.60;;;1.80;99.90;;;;;;5034355;28;20022;-74
2021/01/07 12:04:35;;;;;;;8.00;5.93;;;1.80;99.90;;;;;;5033241;28;20128;-74
2021/01/07 12:07:22;;;;;;;7.18;5.88;;;1.90;99.90;;;;;;5034519;28;20017;-73
2021/01/07 12:09:47;;;;;;;13.55;5.82;;;1.90;99.90;;;;;;5034566;28;20026;-73
2021/01/07 12:12:16;;;;;;;7.47;5.32;;;1.80;99.90;;;;;;5033681;28;20530;-73
2021/01/07 12:14:47;;;;;;;8.02;5.60;;;1.80;99.90;;;;;;5033939;28;20038;-73
2021/01/07 12:17:13;;;;;;;9.80;5.40;;;1.90;99.90;;;;;;5034216;28;20024;-74
2021/01/07 12:19:41;;;;;;;6.85;4.95;;;1.90;99.90;;;;;;5034434;28;20022;-73
2021/01/07 12:22:08;;;;;;;7.65;5.10;;;1.90;99.90;;;;;;5032812;28;20030;-73
2021/01/07 12:24:34;;;;;;;22.42;12.07;;;1.90;99.90;;;;;;5034032;28;20025;-73
2021/01/07 12:27:01;;;;;;;23.00;12.13;;;2.00;99.90;;;;;;5033926;28;20067;-73
2021/01/07 12:29:27;;;;;;;19.95;10.38;;;1.90;99.90;;;;;;5034022;28;20734;-73
2021/01/07 12:31:56;;;;;;;27.90;13.32;;;1.90;99.90;;;;;;5034223;28;20032;-74
2021/01/07 12:34:26;;;;;;;15.32;8.57;;;2.00;99.90;;;;;;5049229;28;20025;-73
2021/01/07 12:37:09;;;;;;;19.95;11.07;;;1.90;99.90;;;;;;5033995;28;20030;-73
2021/01/07 12:39:51;;;;;;;10.68;6.32;;;1.90;99.90;;;;;;5033752;28;20025;-73
2021/01/07 12:42:27;;;;;;;20.02;10.65;;;1.80;99.90;;;;;;5033975;28;20025;-73
2021/01/07 12:44:56;;;;;;;17.67;9.50;;;1.80;99.90;;;;;;5032448;28;20448;-73
2021/01/07 12:47:21;;;;;;;19.65;10.65;;;1.90;99.90;;;;;;5033625;28;20034;-74
2021/01/07 12:49:48;;;;;;;11.45;7.07;;;1.90;99.90;;;;;;5032630;28;20021;-74